sensor_id;sensor_type;location;lat;lon;timestamp;P1;durP1;ratioP1;P2;durP2;ratioP2
69401;SDS011;56589;51.992;5.924;2024-03-23T00:55:33;22.77;;;7.32;;
69401;SDS011;56589;51.992;5.924;2024-03-23T00:57:59;29.52;;;6.55;;
69401;SDS011;56589;51.992;5.924;2024-03-23T01:00:25;23.58;;;7.13;;
69401;SDS011;56589;51.992;5.924;2024-03-23T01:02:51;22.80;;;7.60;;
69401;SDS011;56589;51.992;5.924;2024-03-23T01:05:16;23.23;;;7.70;;
69401;SDS011;56589;51.992;5.924;2024-03-23T01:07:42;30.00;;;7.53;;
69401;SDS011;56589;51.992;5.924;2024-03-23T01:10:11;26.67;;;6.55;;
69401;SDS011;56589;51.992;5.924;2024-03-23T01:12:37;31.92;;;7.40;;
69401;SDS011;56589;51.992;5.924;2024-03-23T01:15:03;25.00;;;7.78;;
69401;SDS011;56589;51.992;5.924;2024-03-23T01:17:29;29.27;;;7.90;;
69401;SDS011;56589;51.992;5.924;2024-03-23T01:19:55;26.60;;;7.70;;
69401;SDS011;56589;51.992;5.924;2024-03-23T01:22:21;31.15;;;7.50;;
69401;SDS011;56589;51.992;5.924;2024-03-23T01:24:47;30.13;;;8.43;;
69401;SDS011;56589;51.992;5.924;2024-03-23T01:27:16;23.27;;;7.13;;
69401;SDS011;56589;51.992;5.924;2024-03-23T01:29:42;27.10;;;8.25;;
69401;SDS011;56589;51.992;5.924;2024-03-23T01:32:08;29.60;;;8.15;;
69401;SDS011;56589;51.992;5.924;2024-03-23T01:34:34;25.88;;;8.60;;
69401;SDS011;56589;51.992;5.924;2024-03-23T01:37:00;34.20;;;8.70;;
69401;SDS011;56589;51.992;5.924;2024-03-23T01:39:26;26.17;;;6.80;;
69401;SDS011;56589;51.992;5.924;2024-03-23T01:41:52;23.70;;;8.15;;
69401;SDS011;56589;51.992;5.924;2024-03-23T01:44:20;29.55;;;9.15;;
69401;SDS011;56589;51.992;5.924;2024-03-23T01:46:47;28.77;;;9.20;;
69401;SDS011;56589;51.992;5.924;2024-03-23T01:49:14;32.55;;;8.80;;
69401;SDS011;56589;51.992;5.924;2024-03-23T01:51:40;26.77;;;8.45;;
69401;SDS011;56589;51.992;5.924;2024-03-23T01:54:07;30.80;;;9.05;;
69401;SDS011;56589;51.992;5.924;2024-03-23T01:56:34;26.08;;;8.38;;
69401;SDS011;56589;51.992;5.924;2024-03-23T01:59:01;27.98;;;9.07;;
69401;SDS011;56589;51.992;5.924;2024-03-23T02:01:29;27.27;;;8.25;;
69401;SDS011;56589;51.992;5.924;2024-03-23T02:03:55;26.95;;;9.40;;
69401;SDS011;56589;51.992;5.924;2024-03-23T02:06:22;33.80;;;9.68;;
69401;SDS011;56589;51.992;5.924;2024-03-23T02:08:49;27.58;;;8.02;;
69401;SDS011;56589;51.992;5.924;2024-03-23T02:11:16;26.45;;;9.50;;
69401;SDS011;56589;51.992;5.924;2024-03-23T02:13:41;30.60;;;9.40;;
69401;SDS011;56589;51.992;5.924;2024-03-23T02:16:07;32.70;;;9.43;;
69401;SDS011;56589;51.992;5.924;2024-03-23T02:18:36;30.88;;;10.00;;
69401;SDS011;56589;51.992;5.924;2024-03-23T02:21:02;32.15;;;8.95;;
69401;SDS011;56589;51.992;5.924;2024-03-23T02:23:31;23.08;;;8.73;;
69401;SDS011;56589;51.992;5.924;2024-03-23T02:25:57;26.25;;;8.43;;
69401;SDS011;56589;51.992;5.924;2024-03-23T02:28:23;22.63;;;8.43;;
69401;SDS011;56589;51.992;5.924;2024-03-23T02:30:49;25.13;;;9.05;;
69401;SDS011;56589;51.992;5.924;2024-03-23T02:33:15;25.40;;;8.23;;
69401;SDS011;56589;51.992;5.924;2024-03-23T02:35:41;21.33;;;8.75;;
69401;SDS011;56589;51.992;5.924;2024-03-23T02:38:08;29.17;;;8.48;;
69401;SDS011;56589;51.992;5.924;2024-03-23T02:40:37;27.00;;;7.88;;
69401;SDS011;56589;51.992;5.924;2024-03-23T02:43:03;21.70;;;7.82;;
69401;SDS011;56589;51.992;5.924;2024-03-23T02:45:29;23.20;;;8.75;;
69401;SDS011;56589;51.992;5.924;2024-03-23T02:47:55;21.77;;;7.88;;
69401;SDS011;56589;51.992;5.924;2024-03-23T02:50:22;28.77;;;8.43;;
69401;SDS011;56589;51.992;5.924;2024-03-23T02:52:48;27.67;;;9.05;;
69401;SDS011;56589;51.992;5.924;2024-03-23T02:55:14;23.35;;;8.63;;
69401;SDS011;56589;51.992;5.924;2024-03-23T02:57:43;24.20;;;8.55;;
69401;SDS011;56589;51.992;5.924;2024-03-23T03:00:09;25.40;;;9.52;;
69401;SDS011;56589;51.992;5.924;2024-03-23T03:02:36;21.40;;;8.27;;
69401;SDS011;56589;51.992;5.924;2024-03-23T03:05:04;24.65;;;8.65;;
69401;SDS011;56589;51.992;5.924;2024-03-23T03:07:31;29.83;;;8.63;;
69401;SDS011;56589;51.992;5.924;2024-03-23T03:09:57;28.52;;;9.40;;
69401;SDS011;56589;51.992;5.924;2024-03-23T03:12:23;32.88;;;8.95;;
69401;SDS011;56589;51.992;5.924;2024-03-23T03:14:52;23.77;;;8.77;;
69401;SDS011;56589;51.992;5.924;2024-03-23T03:17:17;24.30;;;9.27;;
69401;SDS011;56589;51.992;5.924;2024-03-23T03:19:43;25.98;;;9.02;;
69401;SDS011;56589;51.992;5.924;2024-03-23T03:22:09;21.65;;;9.02;;
69401;SDS011;56589;51.992;5.924;2024-03-23T03:24:35;30.65;;;10.45;;
69401;SDS011;56589;51.992;5.924;2024-03-23T03:27:03;24.05;;;9.30;;
69401;SDS011;56589;51.992;5.924;2024-03-23T03:29:29;22.42;;;9.75;;
69401;SDS011;56589;51.992;5.924;2024-03-23T03:31:58;25.58;;;9.93;;
69401;SDS011;56589;51.992;5.924;2024-03-23T03:34:23;19.88;;;8.88;;
69401;SDS011;56589;51.992;5.924;2024-03-23T03:36:51;35.08;;;10.45;;
69401;SDS011;56589;51.992;5.924;2024-03-23T03:39:17;28.05;;;9.50;;
69401;SDS011;56589;51.992;5.924;2024-03-23T03:41:42;35.60;;;9.60;;
69401;SDS011;56589;51.992;5.924;2024-03-23T03:44:08;32.05;;;10.20;;
69401;SDS011;56589;51.992;5.924;2024-03-23T03:46:34;28.83;;;8.77;;
69401;SDS011;56589;51.992;5.924;2024-03-23T03:49:03;31.98;;;9.23;;
69401;SDS011;56589;51.992;5.924;2024-03-23T03:51:28;28.05;;;8.98;;
69401;SDS011;56589;51.992;5.924;2024-03-23T03:53:54;29.45;;;8.75;;
69401;SDS011;56589;51.992;5.924;2024-03-23T03:56:20;29.35;;;8.60;;
69401;SDS011;56589;51.992;5.924;2024-03-23T03:58:46;28.50;;;8.30;;
69401;SDS011;56589;51.992;5.924;2024-03-23T04:01:12;26.67;;;8.60;;
69401;SDS011;56589;51.992;5.924;2024-03-23T04:03:38;24.95;;;8.45;;
69401;SDS011;56589;51.992;5.924;2024-03-23T04:06:07;31.05;;;9.50;;
69401;SDS011;56589;51.992;5.924;2024-03-23T04:08:33;24.88;;;10.25;;
69401;SDS011;56589;51.992;5.924;2024-03-23T04:10:59;29.67;;;8.95;;
69401;SDS011;56589;51.992;5.924;2024-03-23T04:13:25;26.58;;;8.10;;
69401;SDS011;56589;51.992;5.924;2024-03-23T04:15:53;30.58;;;8.27;;
69401;SDS011;56589;51.992;5.924;2024-03-23T04:18:19;23.65;;;8.70;;
69401;SDS011;56589;51.992;5.924;2024-03-23T04:20:45;33.78;;;8.68;;
69401;SDS011;56589;51.992;5.924;2024-03-23T04:23:14;28.48;;;8.20;;
69401;SDS011;56589;51.992;5.924;2024-03-23T04:25:40;29.20;;;8.50;;
69401;SDS011;56589;51.992;5.924;2024-03-23T04:28:05;20.73;;;8.05;;
69401;SDS011;56589;51.992;5.924;2024-03-23T04:30:31;22.73;;;7.57;;
69401;SDS011;56589;51.992;5.924;2024-03-23T04:32:57;21.95;;;7.30;;
69401;SDS011;56589;51.992;5.924;2024-03-23T04:35:23;20.60;;;7.80;;
69401;SDS011;56589;51.992;5.924;2024-03-23T04:37:49;28.38;;;7.28;;
69401;SDS011;56589;51.992;5.924;2024-03-23T04:40:18;24.30;;;8.10;;
69401;SDS011;56589;51.992;5.924;2024-03-23T04:42:43;24.25;;;8.05;;
69401;SDS011;56589;51.992;5.924;2024-03-23T04:45:10;30.15;;;8.05;;
69401;SDS011;56589;51.992;5.924;2024-03-23T04:47:36;23.20;;;7.03;;
69401;SDS011;56589;51.992;5.924;2024-03-23T04:50:05;27.73;;;7.10;;
69401;SDS011;56589;51.992;5.924;2024-03-23T04:52:31;21.75;;;6.30;;
69401;SDS011;56589;51.992;5.924;2024-03-23T04:54:57;23.75;;;7.03;;
69401;SDS011;56589;51.992;5.924;2024-03-23T04:57:25;20.02;;;6.70;;
69401;SDS011;56589;51.992;5.924;2024-03-23T04:59:51;23.95;;;6.55;;
69401;SDS011;56589;51.992;5.924;2024-03-23T05:02:17;23.60;;;6.25;;
69401;SDS011;56589;51.992;5.924;2024-03-23T05:04:43;23.33;;;5.78;;
69401;SDS011;56589;51.992;5.924;2024-03-23T05:07:09;24.15;;;5.80;;
69401;SDS011;56589;51.992;5.924;2024-03-23T05:09:35;20.17;;;5.30;;
69401;SDS011;56589;51.992;5.924;2024-03-23T05:12:02;27.95;;;5.78;;
69401;SDS011;56589;51.992;5.924;2024-03-23T05:14:31;20.80;;;5.28;;
69401;SDS011;56589;51.992;5.924;2024-03-23T05:16:56;22.13;;;6.20;;
69401;SDS011;56589;51.992;5.924;2024-03-23T05:19:22;22.98;;;6.35;;
69401;SDS011;56589;51.992;5.924;2024-03-23T05:21:50;23.27;;;6.30;;
69401;SDS011;56589;51.992;5.924;2024-03-23T05:24:16;17.83;;;6.32;;
69401;SDS011;56589;51.992;5.924;2024-03-23T05:26:42;19.90;;;5.85;;
69401;SDS011;56589;51.992;5.924;2024-03-23T05:29:07;18.55;;;5.13;;
69401;SDS011;56589;51.992;5.924;2024-03-23T05:31:36;23.23;;;5.95;;
69401;SDS011;56589;51.992;5.924;2024-03-23T05:34:02;15.10;;;5.03;;
69401;SDS011;56589;51.992;5.924;2024-03-23T05:36:27;17.25;;;5.00;;
69401;SDS011;56589;51.992;5.924;2024-03-23T05:38:53;17.08;;;5.35;;
69401;SDS011;56589;51.992;5.924;2024-03-23T05:41:19;18.63;;;4.90;;
69401;SDS011;56589;51.992;5.924;2024-03-23T05:43:45;25.75;;;4.85;;
69401;SDS011;56589;51.992;5.924;2024-03-23T05:46:11;17.00;;;4.40;;
69401;SDS011;56589;51.992;5.924;2024-03-23T05:48:42;19.55;;;4.03;;
69401;SDS011;56589;51.992;5.924;2024-03-23T05:51:08;13.82;;;4.28;;
69401;SDS011;56589;51.992;5.924;2024-03-23T05:53:34;14.13;;;3.60;;
69401;SDS011;56589;51.992;5.924;2024-03-23T05:56:00;21.02;;;4.00;;
69401;SDS011;56589;51.992;5.924;2024-03-23T05:58:28;13.98;;;3.50;;
69401;SDS011;56589;51.992;5.924;2024-03-23T06:00:56;13.85;;;3.63;;
69401;SDS011;56589;51.992;5.924;2024-03-23T06:03:23;20.75;;;3.88;;
69401;SDS011;56589;51.992;5.924;2024-03-23T06:05:51;12.93;;;3.47;;
69401;SDS011;56589;51.992;5.924;2024-03-23T06:08:17;12.80;;;3.28;;
69401;SDS011;56589;51.992;5.924;2024-03-23T06:10:43;10.13;;;3.85;;
69401;SDS011;56589;51.992;5.924;2024-03-23T06:13:12;20.58;;;3.70;;
69401;SDS011;56589;51.992;5.924;2024-03-23T06:15:38;11.43;;;3.58;;
69401;SDS011;56589;51.992;5.924;2024-03-23T06:18:04;12.88;;;3.38;;
69401;SDS011;56589;51.992;5.924;2024-03-23T06:20:33;12.73;;;3.85;;
69401;SDS011;56589;51.992;5.924;2024-03-23T06:23:07;19.30;;;3.53;;
69401;SDS011;56589;51.992;5.924;2024-03-23T06:25:34;14.23;;;3.60;;
69401;SDS011;56589;51.992;5.924;2024-03-23T06:28:00;10.18;;;3.00;;
69401;SDS011;56589;51.992;5.924;2024-03-23T06:30:26;12.73;;;4.53;;
69401;SDS011;56589;51.992;5.924;2024-03-23T06:32:52;12.20;;;2.85;;
69401;SDS011;56589;51.992;5.924;2024-03-23T06:35:18;10.25;;;2.53;;
69401;SDS011;56589;51.992;5.924;2024-03-23T06:37:46;12.15;;;3.10;;
69401;SDS011;56589;51.992;5.924;2024-03-23T06:40:17;12.45;;;2.90;;
69401;SDS011;56589;51.992;5.924;2024-03-23T06:42:43;11.00;;;2.25;;
69401;SDS011;56589;51.992;5.924;2024-03-23T06:45:11;10.77;;;2.60;;
69401;SDS011;56589;51.992;5.924;2024-03-23T06:47:37;15.95;;;2.85;;
69401;SDS011;56589;51.992;5.924;2024-03-23T06:50:03;15.88;;;2.47;;
69401;SDS011;56589;51.992;5.924;2024-03-23T06:52:30;11.88;;;2.60;;
69401;SDS011;56589;51.992;5.924;2024-03-23T06:54:56;14.00;;;2.97;;
69401;SDS011;56589;51.992;5.924;2024-03-23T06:57:25;8.82;;;2.17;;
69401;SDS011;56589;51.992;5.924;2024-03-23T06:59:51;15.95;;;3.15;;
69401;SDS011;56589;51.992;5.924;2024-03-23T07:02:18;13.32;;;2.13;;
69401;SDS011;56589;51.992;5.924;2024-03-23T07:04:44;8.85;;;2.08;;
69401;SDS011;56589;51.992;5.924;2024-03-23T07:07:12;11.57;;;2.10;;
69401;SDS011;56589;51.992;5.924;2024-03-23T07:09:39;9.38;;;2.50;;
69401;SDS011;56589;51.992;5.924;2024-03-23T07:12:06;12.57;;;2.40;;
69401;SDS011;56589;51.992;5.924;2024-03-23T07:14:35;12.43;;;2.15;;
69401;SDS011;56589;51.992;5.924;2024-03-23T07:17:02;11.20;;;2.10;;
69401;SDS011;56589;51.992;5.924;2024-03-23T07:19:33;7.13;;;2.00;;
69401;SDS011;56589;51.992;5.924;2024-03-23T07:21:59;11.95;;;2.65;;
69401;SDS011;56589;51.992;5.924;2024-03-23T07:24:24;12.20;;;2.00;;
69401;SDS011;56589;51.992;5.924;2024-03-23T07:26:50;9.98;;;1.83;;
69401;SDS011;56589;51.992;5.924;2024-03-23T07:29:20;11.05;;;2.13;;
69401;SDS011;56589;51.992;5.924;2024-03-23T07:31:52;10.40;;;2.88;;
69401;SDS011;56589;51.992;5.924;2024-03-23T07:34:20;11.25;;;2.53;;
69401;SDS011;56589;51.992;5.924;2024-03-23T07:36:48;14.18;;;3.38;;
69401;SDS011;56589;51.992;5.924;2024-03-23T07:39:14;9.48;;;2.17;;
69401;SDS011;56589;51.992;5.924;2024-03-23T07:41:40;12.88;;;3.10;;
69401;SDS011;56589;51.992;5.924;2024-03-23T07:44:09;8.68;;;2.50;;
69401;SDS011;56589;51.992;5.924;2024-03-23T07:46:39;9.82;;;2.05;;
69401;SDS011;56589;51.992;5.924;2024-03-23T07:49:08;9.32;;;1.98;;
69401;SDS011;56589;51.992;5.924;2024-03-23T07:51:35;13.60;;;2.80;;
69401;SDS011;56589;51.992;5.924;2024-03-23T07:54:02;14.90;;;3.38;;
69401;SDS011;56589;51.992;5.924;2024-03-23T07:56:28;10.73;;;2.22;;
69401;SDS011;56589;51.992;5.924;2024-03-23T07:58:53;16.40;;;4.25;;
69401;SDS011;56589;51.992;5.924;2024-03-23T08:01:20;10.73;;;2.75;;
69401;SDS011;56589;51.992;5.924;2024-03-23T08:03:45;11.40;;;2.15;;
69401;SDS011;56589;51.992;5.924;2024-03-23T08:06:15;11.38;;;2.65;;
69401;SDS011;56589;51.992;5.924;2024-03-23T08:08:42;10.88;;;2.22;;
69401;SDS011;56589;51.992;5.924;2024-03-23T08:11:09;9.38;;;2.35;;
69401;SDS011;56589;51.992;5.924;2024-03-23T08:13:38;9.32;;;2.40;;
69401;SDS011;56589;51.992;5.924;2024-03-23T08:16:06;10.32;;;3.00;;
69401;SDS011;56589;51.992;5.924;2024-03-23T08:18:32;12.07;;;3.10;;
69401;SDS011;56589;51.992;5.924;2024-03-23T08:20:58;12.70;;;2.22;;
69401;SDS011;56589;51.992;5.924;2024-03-23T08:23:28;12.32;;;2.13;;
69401;SDS011;56589;51.992;5.924;2024-03-23T08:25:57;13.93;;;2.45;;
69401;SDS011;56589;51.992;5.924;2024-03-23T08:28:23;12.50;;;2.50;;
69401;SDS011;56589;51.992;5.924;2024-03-23T08:30:50;10.32;;;2.00;;
69401;SDS011;56589;51.992;5.924;2024-03-23T08:33:16;10.48;;;2.08;;
69401;SDS011;56589;51.992;5.924;2024-03-23T08:35:42;7.38;;;2.20;;
69401;SDS011;56589;51.992;5.924;2024-03-23T08:38:07;7.95;;;1.88;;
69401;SDS011;56589;51.992;5.924;2024-03-23T08:40:36;9.73;;;1.90;;
69401;SDS011;56589;51.992;5.924;2024-03-23T08:43:01;8.98;;;1.83;;
69401;SDS011;56589;51.992;5.924;2024-03-23T08:45:27;7.32;;;1.83;;
69401;SDS011;56589;51.992;5.924;2024-03-23T08:47:55;10.75;;;2.08;;
69401;SDS011;56589;51.992;5.924;2024-03-23T08:50:21;10.48;;;1.92;;
69401;SDS011;56589;51.992;5.924;2024-03-23T08:52:47;11.40;;;1.70;;
69401;SDS011;56589;51.992;5.924;2024-03-23T08:55:13;9.07;;;1.58;;
69401;SDS011;56589;51.992;5.924;2024-03-23T08:57:41;10.30;;;1.70;;
69401;SDS011;56589;51.992;5.924;2024-03-23T09:00:12;11.98;;;1.95;;
69401;SDS011;56589;51.992;5.924;2024-03-23T09:02:39;10.10;;;1.95;;
69401;SDS011;56589;51.992;5.924;2024-03-23T09:05:05;7.65;;;1.42;;
69401;SDS011;56589;51.992;5.924;2024-03-23T09:07:32;10.00;;;2.17;;
69401;SDS011;56589;51.992;5.924;2024-03-23T09:09:58;6.10;;;1.10;;
69401;SDS011;56589;51.992;5.924;2024-03-23T09:12:23;6.32;;;1.30;;
69401;SDS011;56589;51.992;5.924;2024-03-23T09:14:52;6.72;;;1.40;;
69401;SDS011;56589;51.992;5.924;2024-03-23T09:17:18;7.95;;;1.35;;
69401;SDS011;56589;51.992;5.924;2024-03-23T09:19:43;5.40;;;1.50;;
69401;SDS011;56589;51.992;5.924;2024-03-23T09:22:09;9.95;;;1.75;;
69401;SDS011;56589;51.992;5.924;2024-03-23T09:24:35;8.43;;;1.90;;
69401;SDS011;56589;51.992;5.924;2024-03-23T09:27:01;11.30;;;1.65;;
69401;SDS011;56589;51.992;5.924;2024-03-23T09:29:27;6.95;;;1.30;;
69401;SDS011;56589;51.992;5.924;2024-03-23T09:31:55;7.80;;;1.50;;
69401;SDS011;56589;51.992;5.924;2024-03-23T09:34:21;8.05;;;1.70;;
69401;SDS011;56589;51.992;5.924;2024-03-23T09:36:50;8.68;;;1.23;;
69401;SDS011;56589;51.992;5.924;2024-03-23T09:39:16;6.90;;;1.45;;
69401;SDS011;56589;51.992;5.924;2024-03-23T09:41:43;8.13;;;1.15;;
69401;SDS011;56589;51.992;5.924;2024-03-23T09:44:10;8.18;;;1.42;;
69401;SDS011;56589;51.992;5.924;2024-03-23T09:46:36;4.82;;;1.10;;
69401;SDS011;56589;51.992;5.924;2024-03-23T09:49:07;6.20;;;1.52;;
69401;SDS011;56589;51.992;5.924;2024-03-23T09:51:33;6.82;;;1.23;;
69401;SDS011;56589;51.992;5.924;2024-03-23T09:54:01;8.98;;;1.58;;
69401;SDS011;56589;51.992;5.924;2024-03-23T09:56:27;9.13;;;2.05;;
69401;SDS011;56589;51.992;5.924;2024-03-23T09:58:59;5.45;;;1.60;;
69401;SDS011;56589;51.992;5.924;2024-03-23T10:03:52;8.32;;;1.83;;
69401;SDS011;56589;51.992;5.924;2024-03-23T10:06:21;10.73;;;1.70;;
69401;SDS011;56589;51.992;5.924;2024-03-23T10:08:47;11.27;;;1.40;;
69401;SDS011;56589;51.992;5.924;2024-03-23T10:11:13;7.47;;;1.52;;
69401;SDS011;56589;51.992;5.924;2024-03-23T10:13:41;8.57;;;2.80;;
69401;SDS011;56589;51.992;5.924;2024-03-23T10:16:08;11.55;;;1.90;;
69401;SDS011;56589;51.992;5.924;2024-03-23T10:18:36;8.32;;;2.03;;
69401;SDS011;56589;51.992;5.924;2024-03-23T10:21:06;5.25;;;1.45;;
69401;SDS011;56589;51.992;5.924;2024-03-23T10:23:37;8.50;;;1.10;;
69401;SDS011;56589;51.992;5.924;2024-03-23T10:26:17;4.90;;;2.10;;
69401;SDS011;56589;51.992;5.924;2024-03-23T10:31:31;5.68;;;1.10;;
69401;SDS011;56589;51.992;5.924;2024-03-23T10:33:57;4.10;;;1.00;;
69401;SDS011;56589;51.992;5.924;2024-03-23T10:36:23;4.95;;;0.90;;
69401;SDS011;56589;51.992;5.924;2024-03-23T10:38:54;3.88;;;1.35;;
69401;SDS011;56589;51.992;5.924;2024-03-23T10:41:20;6.75;;;0.95;;
69401;SDS011;56589;51.992;5.924;2024-03-23T10:43:46;11.23;;;1.60;;
69401;SDS011;56589;51.992;5.924;2024-03-23T10:46:14;5.82;;;1.05;;
69401;SDS011;56589;51.992;5.924;2024-03-23T10:48:40;6.90;;;1.00;;
69401;SDS011;56589;51.992;5.924;2024-03-23T10:51:07;7.88;;;1.38;;
69401;SDS011;56589;51.992;5.924;2024-03-23T10:53:34;10.93;;;1.83;;
69401;SDS011;56589;51.992;5.924;2024-03-23T10:56:04;7.00;;;1.55;;
69401;SDS011;56589;51.992;5.924;2024-03-23T10:58:35;6.40;;;1.42;;
69401;SDS011;56589;51.992;5.924;2024-03-23T11:01:05;10.15;;;1.58;;
69401;SDS011;56589;51.992;5.924;2024-03-23T11:03:32;10.13;;;2.25;;
69401;SDS011;56589;51.992;5.924;2024-03-23T11:05:59;5.30;;;1.15;;
69401;SDS011;56589;51.992;5.924;2024-03-23T11:08:33;6.18;;;1.40;;
69401;SDS011;56589;51.992;5.924;2024-03-23T11:11:16;4.22;;;1.40;;
69401;SDS011;56589;51.992;5.924;2024-03-23T11:13:44;5.32;;;1.48;;
69401;SDS011;56589;51.992;5.924;2024-03-23T11:16:13;9.18;;;1.10;;
69401;SDS011;56589;51.992;5.924;2024-03-23T11:18:40;8.35;;;1.50;;
69401;SDS011;56589;51.992;5.924;2024-03-23T11:21:06;8.05;;;1.30;;
69401;SDS011;56589;51.992;5.924;2024-03-23T11:23:32;14.45;;;1.55;;
69401;SDS011;56589;51.992;5.924;2024-03-23T11:25:58;9.55;;;1.30;;
69401;SDS011;56589;51.992;5.924;2024-03-23T11:28:27;7.80;;;1.52;;
69401;SDS011;56589;51.992;5.924;2024-03-23T11:30:52;8.73;;;2.22;;
69401;SDS011;56589;51.992;5.924;2024-03-23T11:33:19;6.30;;;1.20;;
69401;SDS011;56589;51.992;5.924;2024-03-23T11:35:44;3.28;;;1.17;;
69401;SDS011;56589;51.992;5.924;2024-03-23T11:38:11;4.80;;;1.20;;
69401;SDS011;56589;51.992;5.924;2024-03-23T11:40:38;8.38;;;0.98;;
69401;SDS011;56589;51.992;5.924;2024-03-23T11:43:06;3.47;;;0.80;;
69401;SDS011;56589;51.992;5.924;2024-03-23T11:45:36;8.73;;;1.00;;
69401;SDS011;56589;51.992;5.924;2024-03-23T11:48:07;5.85;;;1.10;;
69401;SDS011;56589;51.992;5.924;2024-03-23T11:50:36;6.13;;;1.10;;
69401;SDS011;56589;51.992;5.924;2024-03-23T11:53:07;6.07;;;1.13;;
69401;SDS011;56589;51.992;5.924;2024-03-23T11:55:45;7.78;;;1.23;;
69401;SDS011;56589;51.992;5.924;2024-03-23T11:58:14;10.10;;;1.65;;
69401;SDS011;56589;51.992;5.924;2024-03-23T12:00:48;8.48;;;1.10;;
69401;SDS011;56589;51.992;5.924;2024-03-23T12:03:18;5.35;;;1.10;;
69401;SDS011;56589;51.992;5.924;2024-03-23T12:05:47;5.78;;;1.15;;
69401;SDS011;56589;51.992;5.924;2024-03-23T12:08:18;5.25;;;1.05;;
69401;SDS011;56589;51.992;5.924;2024-03-23T12:10:47;8.85;;;1.30;;
69401;SDS011;56589;51.992;5.924;2024-03-23T12:13:18;9.00;;;1.90;;
69401;SDS011;56589;51.992;5.924;2024-03-23T12:15:49;4.53;;;1.08;;
69401;SDS011;56589;51.992;5.924;2024-03-23T12:18:18;8.30;;;1.42;;
69401;SDS011;56589;51.992;5.924;2024-03-23T12:20:49;5.50;;;1.10;;
69401;SDS011;56589;51.992;5.924;2024-03-23T12:23:15;7.40;;;1.23;;
69401;SDS011;56589;51.992;5.924;2024-03-23T12:25:41;3.75;;;0.88;;
69401;SDS011;56589;51.992;5.924;2024-03-23T12:28:07;5.05;;;1.08;;
69401;SDS011;56589;51.992;5.924;2024-03-23T12:30:33;5.50;;;1.40;;
69401;SDS011;56589;51.992;5.924;2024-03-23T12:33:03;3.20;;;1.25;;
69401;SDS011;56589;51.992;5.924;2024-03-23T12:35:30;4.70;;;1.10;;
69401;SDS011;56589;51.992;5.924;2024-03-23T12:37:56;11.07;;;1.33;;
69401;SDS011;56589;51.992;5.924;2024-03-23T12:40:21;8.13;;;1.30;;
69401;SDS011;56589;51.992;5.924;2024-03-23T12:42:47;4.90;;;1.00;;
69401;SDS011;56589;51.992;5.924;2024-03-23T12:45:15;7.38;;;1.55;;
69401;SDS011;56589;51.992;5.924;2024-03-23T12:47:41;7.15;;;1.27;;
69401;SDS011;56589;51.992;5.924;2024-03-23T12:50:11;6.88;;;1.30;;
69401;SDS011;56589;51.992;5.924;2024-03-23T12:52:37;8.75;;;1.85;;
69401;SDS011;56589;51.992;5.924;2024-03-23T12:55:05;6.05;;;1.10;;
69401;SDS011;56589;51.992;5.924;2024-03-23T12:57:32;5.00;;;1.85;;
69401;SDS011;56589;51.992;5.924;2024-03-23T12:59:58;4.30;;;1.10;;
69401;SDS011;56589;51.992;5.924;2024-03-23T13:02:25;12.60;;;1.45;;
69401;SDS011;56589;51.992;5.924;2024-03-23T13:04:53;6.22;;;1.17;;
69401;SDS011;56589;51.992;5.924;2024-03-23T13:07:23;10.52;;;1.27;;
69401;SDS011;56589;51.992;5.924;2024-03-23T13:09:50;11.25;;;1.48;;
69401;SDS011;56589;51.992;5.924;2024-03-23T13:12:16;6.43;;;1.20;;
69401;SDS011;56589;51.992;5.924;2024-03-23T13:14:42;13.55;;;1.60;;
69401;SDS011;56589;51.992;5.924;2024-03-23T13:17:08;7.13;;;1.40;;
69401;SDS011;56589;51.992;5.924;2024-03-23T13:19:35;8.25;;;1.85;;
69401;SDS011;56589;51.992;5.924;2024-03-23T13:22:00;4.93;;;1.42;;
69401;SDS011;56589;51.992;5.924;2024-03-23T13:24:29;6.78;;;1.58;;
69401;SDS011;56589;51.992;5.924;2024-03-23T13:26:55;7.13;;;1.38;;
69401;SDS011;56589;51.992;5.924;2024-03-23T13:29:22;9.27;;;1.25;;
69401;SDS011;56589;51.992;5.924;2024-03-23T13:31:49;4.28;;;0.90;;
69401;SDS011;56589;51.992;5.924;2024-03-23T13:34:17;8.98;;;1.33;;
69401;SDS011;56589;51.992;5.924;2024-03-23T13:36:44;8.07;;;2.20;;
69401;SDS011;56589;51.992;5.924;2024-03-23T13:39:14;5.60;;;1.45;;
69401;SDS011;56589;51.992;5.924;2024-03-23T13:41:43;8.05;;;1.55;;
69401;SDS011;56589;51.992;5.924;2024-03-23T13:44:10;4.43;;;1.33;;
69401;SDS011;56589;51.992;5.924;2024-03-23T13:46:38;12.05;;;1.50;;
69401;SDS011;56589;51.992;5.924;2024-03-23T13:49:05;6.45;;;1.38;;
69401;SDS011;56589;51.992;5.924;2024-03-23T13:51:33;5.75;;;1.30;;
69401;SDS011;56589;51.992;5.924;2024-03-23T13:53:59;10.98;;;2.45;;
69401;SDS011;56589;51.992;5.924;2024-03-23T13:56:24;10.68;;;1.50;;
69401;SDS011;56589;51.992;5.924;2024-03-23T13:58:53;7.40;;;1.50;;
69401;SDS011;56589;51.992;5.924;2024-03-23T14:01:19;4.88;;;0.90;;
69401;SDS011;56589;51.992;5.924;2024-03-23T14:03:45;6.25;;;1.10;;
69401;SDS011;56589;51.992;5.924;2024-03-23T14:06:11;5.93;;;1.10;;
69401;SDS011;56589;51.992;5.924;2024-03-23T14:08:39;5.43;;;1.30;;
69401;SDS011;56589;51.992;5.924;2024-03-23T14:11:05;5.95;;;1.50;;
69401;SDS011;56589;51.992;5.924;2024-03-23T14:13:31;6.82;;;1.20;;
69401;SDS011;56589;51.992;5.924;2024-03-23T14:16:00;5.05;;;1.08;;
69401;SDS011;56589;51.992;5.924;2024-03-23T14:18:26;8.07;;;1.08;;
69401;SDS011;56589;51.992;5.924;2024-03-23T14:20:55;9.57;;;1.40;;
69401;SDS011;56589;51.992;5.924;2024-03-23T14:23:25;6.43;;;1.13;;
69401;SDS011;56589;51.992;5.924;2024-03-23T14:26:04;6.55;;;1.08;;
69401;SDS011;56589;51.992;5.924;2024-03-23T14:28:30;3.22;;;0.98;;
69401;SDS011;56589;51.992;5.924;2024-03-23T14:30:56;8.80;;;1.70;;
69401;SDS011;56589;51.992;5.924;2024-03-23T14:33:24;9.88;;;1.17;;
69401;SDS011;56589;51.992;5.924;2024-03-23T14:35:51;4.45;;;0.80;;
69401;SDS011;56589;51.992;5.924;2024-03-23T14:38:18;6.68;;;1.05;;
69401;SDS011;56589;51.992;5.924;2024-03-23T14:40:44;4.47;;;1.00;;
69401;SDS011;56589;51.992;5.924;2024-03-23T14:43:10;5.18;;;0.60;;
69401;SDS011;56589;51.992;5.924;2024-03-23T14:45:45;4.45;;;0.90;;
69401;SDS011;56589;51.992;5.924;2024-03-23T14:48:36;6.05;;;0.90;;
69401;SDS011;56589;51.992;5.924;2024-03-23T14:51:03;5.45;;;1.13;;
69401;SDS011;56589;51.992;5.924;2024-03-23T14:53:30;4.13;;;0.90;;
69401;SDS011;56589;51.992;5.924;2024-03-23T14:55:57;6.18;;;0.90;;
69401;SDS011;56589;51.992;5.924;2024-03-23T14:58:24;6.75;;;1.13;;
69401;SDS011;56589;51.992;5.924;2024-03-23T15:00:52;1.67;;;0.77;;
69401;SDS011;56589;51.992;5.924;2024-03-23T15:03:18;6.13;;;1.67;;
69401;SDS011;56589;51.992;5.924;2024-03-23T15:05:54;6.80;;;1.52;;
69401;SDS011;56589;51.992;5.924;2024-03-23T15:08:20;4.35;;;0.80;;
69401;SDS011;56589;51.992;5.924;2024-03-23T15:10:47;7.18;;;1.40;;
69401;SDS011;56589;51.992;5.924;2024-03-23T15:13:13;6.65;;;1.55;;
69401;SDS011;56589;51.992;5.924;2024-03-23T15:15:39;4.70;;;1.38;;
69401;SDS011;56589;51.992;5.924;2024-03-23T15:18:06;9.15;;;2.47;;
69401;SDS011;56589;51.992;5.924;2024-03-23T15:20:35;7.40;;;1.65;;
69401;SDS011;56589;51.992;5.924;2024-03-23T15:23:06;8.77;;;1.27;;
69401;SDS011;56589;51.992;5.924;2024-03-23T15:25:32;7.82;;;1.35;;
69401;SDS011;56589;51.992;5.924;2024-03-23T15:27:58;7.00;;;1.73;;
69401;SDS011;56589;51.992;5.924;2024-03-23T15:30:24;5.05;;;1.00;;
69401;SDS011;56589;51.992;5.924;2024-03-23T15:32:50;6.50;;;1.27;;
69401;SDS011;56589;51.992;5.924;2024-03-23T15:35:15;5.22;;;0.88;;
69401;SDS011;56589;51.992;5.924;2024-03-23T15:37:41;3.55;;;0.93;;
69401;SDS011;56589;51.992;5.924;2024-03-23T15:40:10;10.68;;;1.25;;